Time;durP1;ratioP1;P1;durP2;ratioP2;P2;SDS_P1;SDS_P2;PMS_P1;PMS_P2;Temp;Humidity;BMP_temperature;BMP_pressure;BME280_temperature;BME280_humidity;BME280_pressure;Samples;Min_cycle;Max_cycle;Signal;HPM_P1;HPM_P2
2023/06/23 00:00:00;;;;;;;5.65;2.50;;;;;;;;;;5074075;28;20027;-65
2023/06/23 00:02:26;;;;;;;6.85;2.33;;;;;;;;;;5083625;28;20023;-65
2023/06/23 00:04:51;;;;;;;7.03;2.97;;;;;;;;;;5082009;28;20028;-65
2023/06/23 00:07:17;;;;;;;5.67;2.60;;;;;;;;;;5083975;28;20026;-65
2023/06/23 00:09:43;;;;;;;7.50;2.80;;;;;;;;;;5070408;28;20467;-65
2023/06/23 00:12:08;;;;;;;6.60;2.70;;;;;;;;;;5081945;28;20049;-66
2023/06/23 00:14:34;;;;;;;4.70;2.10;;;;;;;;;;5087841;28;20853;-66
2023/06/23 00:17:00;;;;;;;7.13;2.13;;;;;;;;;;5074373;28;20061;-66
2023/06/23 00:19:25;;;;;;;6.53;2.90;;;;;;;;;;5084931;28;20574;-65
2023/06/23 00:21:52;;;;;;;6.75;2.30;;;;;;;;;;5073671;28;20066;-63
2023/06/23 00:24:18;;;;;;;5.40;2.10;;;;;;;;;;5086219;27;20104;-65
2023/06/23 00:26:43;;;;;;;5.55;2.35;;;;;;;;;;5093392;27;20107;-65
2023/06/23 00:29:09;;;;;;;5.25;2.17;;;;;;;;;;5086056;28;20535;-65
2023/06/23 00:31:34;;;;;;;4.35;1.67;;;;;;;;;;5069776;28;20024;-65
2023/06/23 00:34:02;;;;;;;4.90;1.88;;;;;;;;;;5089780;28;20027;-66
2023/06/23 00:36:30;;;;;;;5.18;1.90;;;;;;;;;;5094055;27;20697;-64
2023/06/23 00:38:55;;;;;;;5.13;1.90;;;;;;;;;;5082701;28;20035;-66
2023/06/23 00:41:20;;;;;;;5.20;2.08;;;;;;;;;;5076417;28;20115;-64
2023/06/23 00:43:50;;;;;;;5.67;2.00;;;;;;;;;;5075031;28;20319;-65
2023/06/23 00:46:24;;;;;;;5.38;1.67;;;;;;;;;;5083693;27;20489;-66
2023/06/23 00:48:50;;;;;;;4.18;1.70;;;;;;;;;;5077089;28;20472;-65
2023/06/23 00:51:16;;;;;;;5.57;1.80;;;;;;;;;;5077792;27;20024;-65
2023/06/23 00:53:47;;;;;;;4.45;1.58;;;;;;;;;;5076697;28;20114;-65
2023/06/23 00:56:15;;;;;;;5.30;2.08;;;;;;;;;;5069719;28;20020;-66
2023/06/23 00:58:41;;;;;;;4.18;1.45;;;;;;;;;;5077250;28;20019;-65
2023/06/23 01:01:07;;;;;;;4.68;1.63;;;;;;;;;;5077193;28;20027;-65
2023/06/23 01:03:35;;;;;;;4.70;1.80;;;;;;;;;;5072589;28;20096;-65
2023/06/23 01:06:04;;;;;;;4.95;1.50;;;;;;;;;;5074392;28;20137;-65
2023/06/23 01:08:32;;;;;;;5.90;2.08;;;;;;;;;;5092262;28;20033;-65
2023/06/23 01:11:17;;;;;;;4.88;1.80;;;;;;;;;;5073867;28;20027;-65
2023/06/23 01:13:58;;;;;;;5.68;1.80;;;;;;;;;;5076743;28;20024;-65
2023/06/23 01:16:26;;;;;;;4.25;1.52;;;;;;;;;;5089369;27;20043;-65
2023/06/23 01:19:14;;;;;;;5.88;2.10;;;;;;;;;;5088967;27;20030;-65
2023/06/23 01:22:06;;;;;;;5.25;1.70;;;;;;;;;;5071212;28;20048;-63
2023/06/23 01:24:59;;;;;;;4.65;2.10;;;;;;;;;;5083348;28;20042;-65
2023/06/23 01:27:28;;;;;;;5.18;2.22;;;;;;;;;;5090531;28;20027;-65
2023/06/23 01:30:01;;;;;;;5.63;1.80;;;;;;;;;;5090181;27;20016;-64
2023/06/23 01:32:33;;;;;;;4.72;2.10;;;;;;;;;;5094360;28;20620;-65
2023/06/23 01:35:03;;;;;;;5.00;1.90;;;;;;;;;;5084902;28;20123;-65
2023/06/23 01:37:32;;;;;;;7.00;2.28;;;;;;;;;;5087693;28;20414;-65
2023/06/23 01:40:02;;;;;;;5.80;2.13;;;;;;;;;;5075274;28;20097;-65
2023/06/23 01:42:30;;;;;;;6.05;2.40;;;;;;;;;;5086170;28;20130;-64
2023/06/23 01:44:58;;;;;;;5.50;2.45;;;;;;;;;;5074235;28;20077;-65
2023/06/23 01:47:27;;;;;;;5.43;2.10;;;;;;;;;;5084013;27;20055;-64
2023/06/23 01:49:53;;;;;;;6.50;2.10;;;;;;;;;;5069352;28;20016;-64
2023/06/23 01:52:19;;;;;;;6.75;2.50;;;;;;;;;;5073713;28;20104;-64
2023/06/23 01:54:45;;;;;;;6.43;2.20;;;;;;;;;;5087617;27;20028;-64
2023/06/23 01:57:14;;;;;;;6.47;2.15;;;;;;;;;;5075277;28;20068;-65
2023/06/23 01:59:41;;;;;;;5.60;1.97;;;;;;;;;;5073269;28;20039;-63
2023/06/23 02:02:07;;;;;;;4.50;1.95;;;;;;;;;;5091061;28;20321;-65
2023/06/23 02:04:34;;;;;;;5.63;2.10;;;;;;;;;;5084132;28;20682;-63
2023/06/23 02:07:00;;;;;;;5.32;2.13;;;;;;;;;;5075053;28;20020;-66
2023/06/23 02:09:27;;;;;;;4.45;1.83;;;;;;;;;;5089897;27;20016;-64
2023/06/23 02:11:53;;;;;;;4.40;1.65;;;;;;;;;;5088769;27;20600;-65
2023/06/23 02:14:22;;;;;;;4.57;1.50;;;;;;;;;;5070846;28;20023;-65
2023/06/23 02:16:47;;;;;;;6.00;1.70;;;;;;;;;;5089493;27;20051;-65
2023/06/23 02:19:13;;;;;;;5.55;2.00;;;;;;;;;;5073477;28;20497;-66
2023/06/23 02:21:41;;;;;;;4.35;1.52;;;;;;;;;;5078277;28;20032;-62
2023/06/23 02:24:07;;;;;;;5.28;1.80;;;;;;;;;;5075550;28;20482;-68
2023/06/23 02:26:36;;;;;;;4.78;2.40;;;;;;;;;;5071407;28;20030;-64
2023/06/23 02:29:06;;;;;;;4.60;1.83;;;;;;;;;;5091376;27;20012;-68
2023/06/23 02:31:31;;;;;;;;;;;;;;;;;;5084639;28;20039;-66
2023/06/23 02:33:58;;;;;;;5.57;2.10;;;;;;;;;;5087925;28;19973;-65
2023/06/23 02:36:27;;;;;;;5.78;2.20;;;;;;;;;;5083442;27;20802;-65
2023/06/23 02:38:54;;;;;;;5.15;2.00;;;;;;;;;;5085723;27;20031;-65
2023/06/23 02:41:20;;;;;;;4.70;2.20;;;;;;;;;;5077576;28;20051;-64
2023/06/23 02:43:54;;;;;;;6.43;2.95;;;;;;;;;;5087767;27;20098;-65
2023/06/23 02:46:24;;;;;;;7.07;2.35;;;;;;;;;;5073371;28;20019;-64
2023/06/23 02:48:49;;;;;;;;;;;;;;;;;;5076504;28;20142;-61
2023/06/23 02:51:17;;;;;;;7.63;2.30;;;;;;;;;;5070257;28;20019;-63
2023/06/23 02:53:45;;;;;;;5.97;2.33;;;;;;;;;;5089832;28;20382;-67
2023/06/23 02:56:21;;;;;;;6.75;2.42;;;;;;;;;;5060948;28;20822;-67
2023/06/23 02:58:48;;;;;;;5.20;2.38;;;;;;;;;;5070269;28;20037;-63
2023/06/23 03:01:15;;;;;;;5.95;2.30;;;;;;;;;;5080514;27;20082;-64
2023/06/23 03:03:46;;;;;;;5.65;2.08;;;;;;;;;;5089028;28;20035;-63
2023/06/23 03:06:22;;;;;;;5.05;2.55;;;;;;;;;;5086670;28;20024;-66
2023/06/23 03:08:47;;;;;;;5.78;2.83;;;;;;;;;;5065909;28;20536;-68
2023/06/23 03:11:14;;;;;;;7.30;2.85;;;;;;;;;;5081604;28;20016;-65
2023/06/23 03:13:39;;;;;;;5.68;2.80;;;;;;;;;;5080692;28;20106;-64
2023/06/23 03:16:08;;;;;;;6.77;2.47;;;;;;;;;;5094172;28;20626;-66
2023/06/23 03:18:34;;;;;;;5.97;2.43;;;;;;;;;;5082554;28;20298;-65
2023/06/23 03:21:05;;;;;;;6.43;2.28;;;;;;;;;;5088212;27;20074;-64
2023/06/23 03:23:32;;;;;;;5.90;2.05;;;;;;;;;;5083476;28;20027;-64
2023/06/23 03:25:59;;;;;;;6.03;2.08;;;;;;;;;;5085947;28;20762;-66
2023/06/23 03:28:28;;;;;;;5.68;2.40;;;;;;;;;;5081450;28;20034;-66
2023/06/23 03:30:57;;;;;;;4.88;2.08;;;;;;;;;;5082906;28;20028;-65
2023/06/23 03:33:24;;;;;;;6.70;3.00;;;;;;;;;;5081151;28;20324;-66
2023/06/23 03:35:50;;;;;;;5.28;2.28;;;;;;;;;;5061389;28;20041;-64
2023/06/23 03:38:17;;;;;;;6.03;1.98;;;;;;;;;;5084933;28;20514;-64
2023/06/23 03:40:46;;;;;;;4.95;1.90;;;;;;;;;;5085773;28;20020;-68
2023/06/23 03:43:15;;;;;;;5.05;2.10;;;;;;;;;;5064019;28;20031;-66
2023/06/23 03:45:44;;;;;;;6.20;1.90;;;;;;;;;;5072282;28;20123;-65
2023/06/23 03:48:09;;;;;;;5.05;1.90;;;;;;;;;;5063035;28;20019;-66
2023/06/23 03:50:36;;;;;;;10.98;1.85;;;;;;;;;;5071666;28;20043;-66
2023/06/23 03:53:05;;;;;;;8.10;2.15;;;;;;;;;;5072312;28;20611;-66
2023/06/23 03:55:39;;;;;;;5.03;1.90;;;;;;;;;;5089185;28;20854;-65
2023/06/23 03:58:08;;;;;;;6.38;2.25;;;;;;;;;;5080205;28;20084;-65
2023/06/23 04:00:35;;;;;;;6.35;2.13;;;;;;;;;;5078568;28;20410;-64
2023/06/23 04:03:01;;;;;;;4.47;2.10;;;;;;;;;;5090013;28;20035;-68
2023/06/23 04:05:29;;;;;;;4.45;2.00;;;;;;;;;;5086981;27;20109;-64
2023/06/23 04:07:56;;;;;;;5.93;2.60;;;;;;;;;;5085702;27;20020;-66
2023/06/23 04:10:22;;;;;;;9.32;2.28;;;;;;;;;;5092279;28;20028;-66
2023/06/23 04:12:51;;;;;;;6.05;2.42;;;;;;;;;;5080251;27;20026;-65
2023/06/23 04:15:18;;;;;;;5.70;2.40;;;;;;;;;;5075010;28;20051;-65
2023/06/23 04:17:44;;;;;;;6.13;2.17;;;;;;;;;;5090159;28;20432;-65
2023/06/23 04:20:12;;;;;;;6.82;1.85;;;;;;;;;;5090177;28;20112;-67
2023/06/23 04:22:39;;;;;;;4.85;2.10;;;;;;;;;;5074085;27;20673;-65
2023/06/23 04:25:05;;;;;;;6.18;2.00;;;;;;;;;;5090875;28;20051;-66
2023/06/23 04:27:32;;;;;;;4.10;1.90;;;;;;;;;;5091807;28;20118;-63
2023/06/23 04:30:00;;;;;;;4.88;1.77;;;;;;;;;;5091555;28;20048;-65
2023/06/23 04:32:25;;;;;;;4.68;1.98;;;;;;;;;;5083107;27;20122;-66
2023/06/23 04:34:53;;;;;;;7.23;2.50;;;;;;;;;;5089603;28;20119;-63
2023/06/23 04:37:26;;;;;;;7.32;2.20;;;;;;;;;;5082712;27;20119;-66
2023/06/23 04:39:56;;;;;;;5.63;2.35;;;;;;;;;;5092467;27;20004;-65
2023/06/23 04:42:24;;;;;;;5.63;2.28;;;;;;;;;;5092884;27;20039;-65
2023/06/23 04:44:58;;;;;;;5.17;2.23;;;;;;;;;;5089924;27;20016;-65
2023/06/23 04:47:25;;;;;;;5.53;2.13;;;;;;;;;;5071987;28;20024;-66
2023/06/23 04:49:53;;;;;;;6.10;2.45;;;;;;;;;;5077695;28;20042;-66
2023/06/23 04:52:18;;;;;;;5.85;2.53;;;;;;;;;;5079331;28;20119;-66
2023/06/23 04:54:44;;;;;;;5.32;2.63;;;;;;;;;;5088400;28;20015;-66
2023/06/23 04:57:13;;;;;;;6.43;3.00;;;;;;;;;;5096042;27;20024;-65
2023/06/23 04:59:39;;;;;;;5.20;2.75;;;;;;;;;;5064221;28;20023;-66
2023/06/23 05:02:10;;;;;;;7.28;2.90;;;;;;;;;;5064886;27;20034;-65
2023/06/23 05:04:38;;;;;;;7.00;3.30;;;;;;;;;;5081983;28;20031;-66
2023/06/23 05:07:03;;;;;;;6.25;3.00;;;;;;;;;;5085321;28;20236;-65
2023/06/23 05:09:29;;;;;;;7.05;3.60;;;;;;;;;;5084793;28;20876;-65
2023/06/23 05:11:55;;;;;;;7.80;3.13;;;;;;;;;;5092459;28;20413;-65
2023/06/23 05:14:21;;;;;;;6.82;3.00;;;;;;;;;;5077465;28;20016;-65
2023/06/23 05:16:49;;;;;;;5.72;2.72;;;;;;;;;;5086159;28;20104;-65
2023/06/23 05:19:18;;;;;;;7.30;2.83;;;;;;;;;;5089431;28;20693;-65
2023/06/23 05:21:46;;;;;;;6.50;2.92;;;;;;;;;;5079895;28;20062;-65
2023/06/23 05:24:13;;;;;;;6.80;2.72;;;;;;;;;;5086632;28;20011;-65
2023/06/23 05:26:39;;;;;;;6.47;2.67;;;;;;;;;;5062573;28;20069;-66
2023/06/23 05:29:06;;;;;;;6.63;3.03;;;;;;;;;;5086092;28;20031;-65
2023/06/23 05:31:32;;;;;;;7.07;2.95;;;;;;;;;;5073229;28;20024;-66
2023/06/23 05:34:00;;;;;;;7.80;2.80;;;;;;;;;;5089649;28;20020;-65
2023/06/23 05:36:26;;;;;;;6.50;2.78;;;;;;;;;;5091850;27;20773;-66
2023/06/23 05:38:54;;;;;;;5.90;2.65;;;;;;;;;;5086896;28;20023;-65
2023/06/23 05:41:20;;;;;;;7.15;2.60;;;;;;;;;;5079214;28;20035;-65
2023/06/23 05:43:47;;;;;;;5.63;2.30;;;;;;;;;;5090676;28;20038;-66
2023/06/23 05:46:17;;;;;;;5.20;2.40;;;;;;;;;;5100506;27;20109;-66
2023/06/23 05:48:44;;;;;;;5.95;1.92;;;;;;;;;;5079306;28;20055;-65
2023/06/23 05:51:12;;;;;;;5.18;1.73;;;;;;;;;;5080531;28;20035;-65
2023/06/23 05:53:39;;;;;;;4.28;1.33;;;;;;;;;;5073570;28;20027;-66
2023/06/23 05:56:10;;;;;;;4.20;1.38;;;;;;;;;;5087802;27;20038;-65
2023/06/23 05:58:38;;;;;;;4.32;1.52;;;;;;;;;;5086429;28;20020;-65
2023/06/23 06:01:06;;;;;;;4.10;1.35;;;;;;;;;;5090094;28;20020;-66
2023/06/23 06:03:44;;;;;;;4.35;1.55;;;;;;;;;;5073356;28;20035;-65
2023/06/23 06:06:10;;;;;;;4.95;1.35;;;;;;;;;;5071309;28;20036;-64
2023/06/23 06:08:37;;;;;;;3.85;1.33;;;;;;;;;;5086343;28;20035;-65
2023/06/23 06:11:02;;;;;;;4.68;1.50;;;;;;;;;;5065798;28;20032;-66
2023/06/23 06:13:30;;;;;;;5.07;1.30;;;;;;;;;;5089713;28;20036;-65
2023/06/23 06:15:58;;;;;;;3.75;1.40;;;;;;;;;;5083297;28;20047;-66
2023/06/23 06:18:24;;;;;;;5.38;1.73;;;;;;;;;;5089050;28;20673;-65
2023/06/23 06:20:50;;;;;;;5.35;1.48;;;;;;;;;;5072427;28;20695;-66
2023/06/23 06:23:16;;;;;;;3.75;1.10;;;;;;;;;;5092056;28;20031;-66
2023/06/23 06:25:44;;;;;;;3.95;1.20;;;;;;;;;;5065933;28;20816;-65
2023/06/23 06:28:13;;;;;;;2.83;1.00;;;;;;;;;;5069883;28;20244;-66
2023/06/23 06:30:42;;;;;;;3.05;0.90;;;;;;;;;;5072583;28;20609;-66
2023/06/23 06:33:08;;;;;;;4.40;1.13;;;;;;;;;;5084969;28;20031;-66
2023/06/23 06:35:34;;;;;;;4.40;1.00;;;;;;;;;;5069923;28;20012;-66
2023/06/23 06:38:00;;;;;;;3.08;0.80;;;;;;;;;;5084067;28;20445;-65
2023/06/23 06:40:28;;;;;;;2.67;0.73;;;;;;;;;;5087487;28;20054;-65
2023/06/23 06:42:56;;;;;;;3.10;0.90;;;;;;;;;;5087203;28;20573;-66
2023/06/23 06:45:22;;;;;;;3.20;1.00;;;;;;;;;;5082874;28;20106;-65
2023/06/23 06:47:49;;;;;;;3.10;0.70;;;;;;;;;;5065757;28;20030;-65
2023/06/23 06:50:15;;;;;;;2.88;0.90;;;;;;;;;;5088930;28;20249;-66
2023/06/23 06:52:41;;;;;;;2.72;0.80;;;;;;;;;;5063383;28;20414;-66
2023/06/23 06:55:09;;;;;;;3.60;0.80;;;;;;;;;;5084048;28;20024;-66
2023/06/23 06:57:35;;;;;;;4.65;0.80;;;;;;;;;;5064756;28;20019;-66
2023/06/23 07:00:03;;;;;;;2.83;0.88;;;;;;;;;;5070477;28;20032;-65
2023/06/23 07:02:29;;;;;;;3.70;0.85;;;;;;;;;;5071015;28;20043;-66
2023/06/23 07:04:55;;;;;;;4.43;1.00;;;;;;;;;;5086789;28;20024;-66
2023/06/23 07:07:21;;;;;;;1.95;0.68;;;;;;;;;;5080383;28;20119;-65
2023/06/23 07:09:46;;;;;;;2.73;0.73;;;;;;;;;;5090968;28;20072;-65
2023/06/23 07:12:11;;;;;;;2.50;0.80;;;;;;;;;;5087635;28;20028;-66
2023/06/23 07:14:36;;;;;;;2.43;0.80;;;;;;;;;;5093647;27;20287;-65
2023/06/23 07:17:02;;;;;;;3.80;1.00;;;;;;;;;;5089869;28;20071;-66
2023/06/23 07:19:27;;;;;;;4.57;0.83;;;;;;;;;;5067594;28;20266;-66
2023/06/23 07:21:52;;;;;;;2.50;0.90;;;;;;;;;;5073661;28;20311;-66
2023/06/23 07:24:20;;;;;;;3.33;0.70;;;;;;;;;;5090131;28;20059;-65
2023/06/23 07:26:47;;;;;;;2.13;0.50;;;;;;;;;;5092509;28;20028;-66
2023/06/23 07:29:15;;;;;;;2.38;0.60;;;;;;;;;;5083152;28;20022;-66
2023/06/23 07:31:40;;;;;;;2.25;0.63;;;;;;;;;;5068424;28;20030;-66
2023/06/23 07:34:08;;;;;;;2.80;0.70;;;;;;;;;;5077542;28;20337;-66
2023/06/23 07:36:33;;;;;;;3.08;0.90;;;;;;;;;;5088351;27;20012;-65
2023/06/23 07:38:58;;;;;;;2.63;0.75;;;;;;;;;;5093954;28;20101;-66
2023/06/23 07:41:24;;;;;;;2.43;0.80;;;;;;;;;;5093895;28;20076;-65
2023/06/23 07:43:49;;;;;;;2.28;0.55;;;;;;;;;;5076871;28;20044;-65
2023/06/23 07:46:14;;;;;;;3.93;1.00;;;;;;;;;;5072497;28;20565;-66
2023/06/23 07:48:39;;;;;;;2.47;0.80;;;;;;;;;;5090784;28;20381;-65
2023/06/23 07:51:05;;;;;;;3.47;0.98;;;;;;;;;;5066824;28;20122;-65
2023/06/23 07:53:30;;;;;;;3.10;0.63;;;;;;;;;;5098197;28;20024;-65
2023/06/23 07:55:55;;;;;;;1.93;0.60;;;;;;;;;;5094245;28;20019;-65
2023/06/23 07:58:23;;;;;;;5.43;1.30;;;;;;;;;;5091174;28;20292;-67
2023/06/23 08:00:48;;;;;;;2.75;1.00;;;;;;;;;;5071713;28;20452;-66
2023/06/23 08:03:15;;;;;;;3.20;0.90;;;;;;;;;;5085680;28;20041;-67
2023/06/23 08:05:41;;;;;;;2.72;1.00;;;;;;;;;;5087196;28;20085;-66
2023/06/23 08:08:06;;;;;;;3.80;1.30;;;;;;;;;;5062758;28;20472;-67
2023/06/23 08:10:32;;;;;;;3.90;1.40;;;;;;;;;;5061416;28;20115;-67
2023/06/23 08:12:57;;;;;;;2.93;0.67;;;;;;;;;;5087809;28;21052;-67
2023/06/23 08:15:25;;;;;;;2.37;0.73;;;;;;;;;;5090427;28;20461;-67
2023/06/23 08:17:51;;;;;;;3.42;1.00;;;;;;;;;;5068069;28;20537;-66
2023/06/23 08:20:16;;;;;;;3.80;1.00;;;;;;;;;;5073559;28;20016;-67
2023/06/23 08:22:42;;;;;;;2.97;0.90;;;;;;;;;;5070881;28;20058;-66
2023/06/23 08:25:07;;;;;;;3.60;0.90;;;;;;;;;;5072363;28;20023;-66
2023/06/23 08:27:33;;;;;;;3.80;0.90;;;;;;;;;;5059955;28;20024;-67
2023/06/23 08:29:58;;;;;;;4.07;1.20;;;;;;;;;;5085431;27;20214;-65
2023/06/23 08:32:24;;;;;;;2.65;0.70;;;;;;;;;;5093573;28;20109;-64
2023/06/23 08:34:49;;;;;;;2.20;0.70;;;;;;;;;;5072166;28;20131;-66
2023/06/23 08:37:14;;;;;;;3.23;0.90;;;;;;;;;;5067042;28;20539;-67
2023/06/23 08:39:40;;;;;;;5.07;1.00;;;;;;;;;;5061974;28;20020;-64
2023/06/23 08:42:07;;;;;;;2.47;0.90;;;;;;;;;;5082932;28;20447;-64
2023/06/23 08:44:35;;;;;;;2.35;0.80;;;;;;;;;;5087415;28;20023;-64
2023/06/23 08:47:02;;;;;;;3.30;1.13;;;;;;;;;;5057891;28;20038;-62
2023/06/23 08:49:30;;;;;;;3.13;1.10;;;;;;;;;;5086257;28;20015;-62
2023/06/23 08:51:58;;;;;;;3.50;1.00;;;;;;;;;;5066225;28;20020;-65
2023/06/23 08:54:23;;;;;;;2.97;1.00;;;;;;;;;;5082948;28;20041;-65
2023/06/23 08:56:48;;;;;;;3.55;1.10;;;;;;;;;;5089382;28;20055;-64
2023/06/23 08:59:15;;;;;;;3.03;1.08;;;;;;;;;;5091532;28;20023;-64
2023/06/23 09:01:40;;;;;;;3.78;1.20;;;;;;;;;;5064206;28;20035;-61
2023/06/23 09:04:05;;;;;;;3.47;1.00;;;;;;;;;;5075584;28;20059;-64
2023/06/23 09:06:30;;;;;;;3.43;1.10;;;;;;;;;;5088429;27;20060;-64
2023/06/23 09:08:56;;;;;;;3.53;1.20;;;;;;;;;;5071772;28;20454;-66
2023/06/23 09:11:21;;;;;;;4.57;1.40;;;;;;;;;;5081338;28;20019;-63
2023/06/23 09:13:47;;;;;;;3.38;1.23;;;;;;;;;;5088998;28;20065;-66
2023/06/23 09:16:15;;;;;;;3.50;1.40;;;;;;;;;;5095333;28;20054;-63
2023/06/23 09:18:41;;;;;;;4.00;1.70;;;;;;;;;;5089210;28;20022;-64
2023/06/23 09:21:09;;;;;;;3.80;1.60;;;;;;;;;;5086898;28;20020;-67
2023/06/23 09:23:34;;;;;;;4.28;1.75;;;;;;;;;;5087232;27;20019;-65
2023/06/23 09:26:03;;;;;;;4.82;1.73;;;;;;;;;;5085886;28;20584;-64
2023/06/23 09:28:31;;;;;;;5.10;1.60;;;;;;;;;;5066744;28;20019;-65
2023/06/23 09:30:57;;;;;;;3.90;1.60;;;;;;;;;;5091882;28;20068;-64
2023/06/23 09:33:24;;;;;;;4.13;1.90;;;;;;;;;;5089916;28;20110;-66
2023/06/23 09:35:53;;;;;;;4.10;1.80;;;;;;;;;;5085908;28;20008;-64
2023/06/23 09:38:19;;;;;;;4.50;2.05;;;;;;;;;;5089302;28;20038;-62
2023/06/23 09:40:44;;;;;;;4.20;2.00;;;;;;;;;;5078604;28;20568;-65
2023/06/23 09:43:12;;;;;;;5.10;2.22;;;;;;;;;;5071228;28;20039;-63
2023/06/23 09:45:37;;;;;;;4.65;2.10;;;;;;;;;;5089038;28;20679;-64
2023/06/23 09:48:03;;;;;;;4.60;2.22;;;;;;;;;;5076240;28;20055;-62
2023/06/23 09:50:31;;;;;;;5.93;2.28;;;;;;;;;;5092181;28;20087;-62
2023/06/23 09:53:04;;;;;;;4.60;2.13;;;;;;;;;;5074899;28;20020;-65
2023/06/23 09:55:30;;;;;;;5.40;2.60;;;;;;;;;;5082676;28;20020;-64
2023/06/23 09:57:57;;;;;;;4.90;2.15;;;;;;;;;;5069070;28;20016;-65
2023/06/23 10:00:29;;;;;;;4.65;2.20;;;;;;;;;;5088218;28;20083;-65
2023/06/23 10:02:56;;;;;;;6.45;2.70;;;;;;;;;;5087952;28;20773;-66
2023/06/23 10:05:22;;;;;;;5.88;2.65;;;;;;;;;;5090309;28;20030;-65
2023/06/23 10:07:47;;;;;;;4.63;2.15;;;;;;;;;;5079281;28;20023;-66
2023/06/23 10:10:14;;;;;;;5.63;2.70;;;;;;;;;;5073769;28;20055;-65
2023/06/23 10:12:42;;;;;;;4.82;2.55;;;;;;;;;;5076841;27;20418;-68
2023/06/23 10:15:08;;;;;;;4.95;2.45;;;;;;;;;;5068029;28;20485;-67
2023/06/23 10:17:34;;;;;;;4.97;2.55;;;;;;;;;;5079973;28;20050;-67
2023/06/23 10:20:04;;;;;;;4.80;2.50;;;;;;;;;;5068089;28;20024;-66
2023/06/23 10:22:30;;;;;;;5.40;2.90;;;;;;;;;;5085183;28;20021;-67
2023/06/23 10:24:58;;;;;;;5.55;2.70;;;;;;;;;;5087061;28;20406;-67
2023/06/23 10:27:28;;;;;;;4.90;2.37;;;;;;;;;;5077040;28;20086;-66
2023/06/23 10:29:54;;;;;;;6.05;2.92;;;;;;;;;;5087090;28;20014;-65
2023/06/23 10:32:22;;;;;;;5.88;2.67;;;;;;;;;;5089683;28;22184;-67
2023/06/23 10:34:49;;;;;;;5.35;2.63;;;;;;;;;;5068285;28;20107;-65
2023/06/23 10:37:15;;;;;;;6.82;3.30;;;;;;;;;;5067056;28;20019;-66
2023/06/23 10:39:41;;;;;;;5.22;2.78;;;;;;;;;;5063706;28;20019;-66
2023/06/23 10:42:11;;;;;;;5.30;2.63;;;;;;;;;;5075273;28;20027;-66
2023/06/23 10:44:37;;;;;;;6.22;2.90;;;;;;;;;;5086022;28;20096;-65
2023/06/23 10:47:02;;;;;;;4.95;2.60;;;;;;;;;;5090070;28;20044;-66
2023/06/23 10:49:30;;;;;;;5.43;2.90;;;;;;;;;;5087681;27;20020;-66
2023/06/23 10:51:58;;;;;;;5.10;2.70;;;;;;;;;;5085214;28;20031;-66
2023/06/23 10:54:27;;;;;;;5.07;2.63;;;;;;;;;;5071799;28;20100;-65
2023/06/23 10:56:53;;;;;;;6.05;2.92;;;;;;;;;;5091313;28;20020;-65
2023/06/23 10:59:27;;;;;;;5.35;2.88;;;;;;;;;;5069590;28;20019;-65
2023/06/23 11:02:06;;;;;;;5.68;2.90;;;;;;;;;;5062853;28;20028;-64
2023/06/23 11:04:33;;;;;;;5.32;2.67;;;;;;;;;;5081769;28;20012;-65
2023/06/23 11:07:07;;;;;;;5.35;2.65;;;;;;;;;;5086295;28;20028;-65
2023/06/23 11:09:49;;;;;;;6.43;2.78;;;;;;;;;;5093356;28;20016;-64
2023/06/23 11:12:33;;;;;;;5.60;2.50;;;;;;;;;;5061505;28;20020;-64
2023/06/23 11:15:04;;;;;;;5.60;2.70;;;;;;;;;;5089791;28;20016;-65
2023/06/23 11:17:38;;;;;;;5.72;2.38;;;;;;;;;;5064982;28;20016;-65
2023/06/23 11:20:03;;;;;;;5.57;2.90;;;;;;;;;;5091899;28;20016;-66
2023/06/23 11:22:29;;;;;;;5.15;2.42;;;;;;;;;;5075559;28;20114;-65
2023/06/23 11:25:03;;;;;;;5.55;2.72;;;;;;;;;;5088538;28;20507;-65
2023/06/23 11:27:31;;;;;;;5.75;2.90;;;;;;;;;;5071816;28;20019;-65
2023/06/23 11:30:16;;;;;;;6.60;2.95;;;;;;;;;;5085648;27;20107;-65
2023/06/23 11:32:41;;;;;;;6.50;2.95;;;;;;;;;;5068888;28;20081;-66
2023/06/23 11:35:08;;;;;;;6.00;2.80;;;;;;;;;;5072225;28;20733;-65
2023/06/23 11:37:33;;;;;;;8.20;2.78;;;;;;;;;;5080433;28;20016;-65
2023/06/23 11:40:03;;;;;;;4.80;2.53;;;;;;;;;;5066156;28;20684;-64
2023/06/23 11:42:31;;;;;;;6.45;2.47;;;;;;;;;;5068548;28;20080;-64
2023/06/23 11:44:57;;;;;;;5.78;2.72;;;;;;;;;;5085100;28;20031;-63
2023/06/23 11:47:25;;;;;;;6.60;3.10;;;;;;;;;;5092818;28;20050;-63
2023/06/23 11:49:51;;;;;;;6.22;3.00;;;;;;;;;;5070881;28;20023;-63
2023/06/23 11:52:19;;;;;;;6.57;2.55;;;;;;;;;;5065635;28;20736;-64
2023/06/23 11:54:46;;;;;;;5.03;2.60;;;;;;;;;;5083446;28;20047;-63
2023/06/23 11:57:11;;;;;;;5.30;2.60;;;;;;;;;;5082345;28;20085;-65
2023/06/23 11:59:37;;;;;;;5.07;2.77;;;;;;;;;;5091659;28;20019;-65
2023/06/23 12:02:03;;;;;;;5.28;2.50;;;;;;;;;;5090795;28;20020;-64
2023/06/23 12:04:29;;;;;;;6.65;2.88;;;;;;;;;;5074920;28;20853;-65
2023/06/23 12:06:56;;;;;;;5.57;2.83;;;;;;;;;;5081566;28;20044;-65
2023/06/23 12:09:22;;;;;;;6.15;3.10;;;;;;;;;;5067501;28;20024;-65
2023/06/23 12:11:53;;;;;;;5.38;2.95;;;;;;;;;;5084932;28;20019;-65
2023/06/23 12:14:26;;;;;;;7.00;2.92;;;;;;;;;;5081471;28;20019;-65
2023/06/23 12:16:52;;;;;;;5.70;3.30;;;;;;;;;;5091031;28;20048;-64
2023/06/23 12:19:20;;;;;;;6.45;3.20;;;;;;;;;;5068483;28;20548;-66
2023/06/23 12:21:46;;;;;;;7.70;3.35;;;;;;;;;;5084432;28;20035;-66
2023/06/23 12:24:14;;;;;;;5.75;3.30;;;;;;;;;;5098956;28;20912;-66
2023/06/23 12:26:42;;;;;;;7.25;2.78;;;;;;;;;;5091784;28;20102;-66
2023/06/23 12:29:08;;;;;;;6.50;3.10;;;;;;;;;;5070625;28;20502;-66
2023/06/23 12:31:34;;;;;;;5.90;3.13;;;;;;;;;;5074024;28;20544;-66
2023/06/23 12:34:02;;;;;;;6.35;3.10;;;;;;;;;;5084543;28;20028;-66
2023/06/23 12:36:28;;;;;;;5.95;3.47;;;;;;;;;;5094529;28;20020;-66
2023/06/23 12:38:55;;;;;;;7.72;3.85;;;;;;;;;;5075656;28;20061;-66
2023/06/23 12:41:24;;;;;;;7.68;3.65;;;;;;;;;;5091806;28;20801;-64
2023/06/23 12:43:50;;;;;;;9.98;3.70;;;;;;;;;;5099540;28;20274;-66
2023/06/23 12:46:18;;;;;;;6.85;3.92;;;;;;;;;;5075509;28;20111;-66
2023/06/23 12:48:44;;;;;;;6.78;3.33;;;;;;;;;;5098446;28;20051;-64
2023/06/23 12:51:09;;;;;;;7.72;3.10;;;;;;;;;;5074017;28;20123;-66
2023/06/23 12:53:35;;;;;;;6.53;4.00;;;;;;;;;;5069606;28;20043;-67
2023/06/23 12:56:00;;;;;;;6.43;3.60;;;;;;;;;;5089544;28;20016;-66
2023/06/23 12:58:27;;;;;;;6.97;3.95;;;;;;;;;;5070803;28;20046;-65
2023/06/23 13:00:52;;;;;;;7.25;4.53;;;;;;;;;;5075266;28;20458;-64
2023/06/23 13:03:17;;;;;;;6.90;4.20;;;;;;;;;;5071127;28;20034;-65
2023/06/23 13:05:43;;;;;;;6.68;3.75;;;;;;;;;;5084664;28;20083;-66
2023/06/23 13:08:09;;;;;;;6.97;3.95;;;;;;;;;;5061386;28;20016;-66
2023/06/23 13:10:35;;;;;;;8.20;4.50;;;;;;;;;;5063943;28;20020;-66
2023/06/23 13:13:00;;;;;;;7.00;4.40;;;;;;;;;;5062846;28;20026;-66
2023/06/23 13:15:27;;;;;;;7.13;4.43;;;;;;;;;;5064836;28;20048;-65
2023/06/23 13:17:52;;;;;;;9.32;4.35;;;;;;;;;;5080836;28;20010;-66
2023/06/23 13:20:18;;;;;;;7.22;4.28;;;;;;;;;;5067352;28;20401;-66
2023/06/23 13:22:45;;;;;;;8.23;4.77;;;;;;;;;;5063360;28;20063;-66
2023/06/23 13:25:13;;;;;;;7.57;4.63;;;;;;;;;;5079463;28;20277;-66
2023/06/23 13:27:41;;;;;;;7.28;4.55;;;;;;;;;;5080218;28;20055;-66
2023/06/23 13:30:09;;;;;;;7.53;4.00;;;;;;;;;;5061471;28;20221;-66
2023/06/23 13:32:39;;;;;;;9.13;4.55;;;;;;;;;;5062483;28;20027;-65
2023/06/23 13:35:04;;;;;;;8.43;5.13;;;;;;;;;;5077885;28;20047;-66
2023/06/23 13:37:30;;;;;;;7.20;4.50;;;;;;;;;;5062084;28;20127;-66
2023/06/23 13:39:57;;;;;;;7.70;4.80;;;;;;;;;;5062573;28;21012;-66
2023/06/23 13:42:23;;;;;;;9.05;4.88;;;;;;;;;;5062293;28;20042;-66
2023/06/23 13:44:48;;;;;;;8.43;5.13;;;;;;;;;;5059103;28;20854;-64
2023/06/23 13:47:13;;;;;;;8.83;4.93;;;;;;;;;;5062218;28;20064;-65
2023/06/23 13:49:38;;;;;;;7.32;4.40;;;;;;;;;;5065375;28;20023;-65
2023/06/23 13:52:06;;;;;;;9.17;5.10;;;;;;;;;;5068921;28;20036;-65
2023/06/23 13:54:32;;;;;;;8.63;5.35;;;;;;;;;;5066690;28;20030;-65
2023/06/23 13:56:58;;;;;;;7.30;4.70;;;;;;;;;;5067893;28;20541;-66
2023/06/23 13:59:23;;;;;;;7.35;4.88;;;;;;;;;;5071894;28;20866;-66
2023/06/23 14:01:50;;;;;;;7.15;4.65;;;;;;;;;;5071702;28;20432;-65
2023/06/23 14:04:16;;;;;;;7.35;4.65;;;;;;;;;;5079267;28;20031;-65
2023/06/23 14:06:44;;;;;;;7.75;4.63;;;;;;;;;;5067570;28;20096;-66
2023/06/23 14:09:12;;;;;;;7.43;4.67;;;;;;;;;;5063290;28;20333;-66
2023/06/23 14:11:37;;;;;;;9.00;4.88;;;;;;;;;;5077208;28;20455;-65
2023/06/23 14:14:03;;;;;;;9.80;5.15;;;;;;;;;;5062634;28;20012;-65
2023/06/23 14:16:28;;;;;;;8.00;5.00;;;;;;;;;;5068592;28;20078;-64
2023/06/23 14:18:53;;;;;;;8.37;4.83;;;;;;;;;;5064185;28;20291;-65
2023/06/23 14:21:18;;;;;;;7.60;4.78;;;;;;;;;;5080461;28;20959;-64
2023/06/23 14:23:46;;;;;;;7.37;5.00;;;;;;;;;;5064975;28;20016;-63
2023/06/23 14:26:11;;;;;;;8.70;5.18;;;;;;;;;;5063813;28;20275;-64
2023/06/23 14:28:37;;;;;;;9.20;4.20;;;;;;;;;;5069515;28;20728;-65
2023/06/23 14:31:07;;;;;;;11.93;5.10;;;;;;;;;;5079215;27;20254;-65
2023/06/23 14:33:32;;;;;;;9.15;5.70;;;;;;;;;;5079598;28;20172;-65
2023/06/23 14:35:58;;;;;;;7.80;5.13;;;;;;;;;;5077684;28;20684;-65
2023/06/23 14:38:23;;;;;;;7.45;4.88;;;;;;;;;;5078800;28;21065;-65
2023/06/23 14:40:49;;;;;;;8.47;5.57;;;;;;;;;;5069123;28;20032;-66
2023/06/23 14:43:14;;;;;;;9.60;5.47;;;;;;;;;;5069839;28;20680;-65